Portada
METAR-TAF:

METAR-TAF

Aeroports :

Simla, Índia

latitud: 31-04-54N, longitud: 77-04-05E, altitud: 1546 m

METAR: manca

Hora: 00:40 (19:10 UTC)

Pronòstic

L'informe es va fer fa 14 hores i 10 minuts, a les 05:00 UTC
Pronòstic vàlid del 17 a les 06 UTC al 17 a les 15 UTC
Vent kt del Nord
Visibilitat: 6000 m
Escasses núvols a una alçada de 2000 ft
Escasses núvols a una alçada de 6000 ft
Temporalment
l' 17 a les 09 UTC al 17 a les 15 UTC
Escasses núvols a una alçada de 3500 ft, Cumulonimbus.

TAF: VISM 170500Z 1706/1715 00000KT 6000 FEW020 FEW060 TEMPO 1709/1715 FEW035CB

Observacions i pronòstics meteorològics de més de 4000 aeroports (METAR i TAF).

Les estacions disponibles són els punts grocs i vermells al mapa.

Posi el ratolí al punt desitjat per veure el nom de l'estació.

Feu clic per veure les observacions i els pronòstics meteorològics.

Per canviar el mapa: feu clic els botons verds amb una creu de color negre per apropar; al botó verd amb un guió per allunyar la imatge; o en les fletxes verdes per a mapes adjacents.


METAR-TAF: